Time;durP1;ratioP1;P1;durP2;ratioP2;P2;SDS_P1;SDS_P2;PMS_P1;PMS_P2;Temp;Humidity;BMP_temperature;BMP_pressure;BME280_temperature;BME280_humidity;BME280_pressure;Samples;Min_cycle;Max_cycle;Signal;HPM_P1;HPM_P2
2022/05/21 00:00:59;;;;;;;8.20;7.20;;;12.80;84.10;;;;;;5076692;28;21222;-72
2022/05/21 00:03:27;;;;;;;9.00;7.97;;;12.80;84.00;;;;;;5075461;27;20429;-67
2022/05/21 00:05:53;;;;;;;8.70;7.90;;;12.80;84.20;;;;;;5078457;28;21561;-69
2022/05/21 00:08:21;;;;;;;10.18;9.07;;;12.80;84.10;;;;;;5083380;27;20440;-71
2022/05/21 00:10:48;;;;;;;9.80;8.90;;;12.80;83.50;;;;;;5079369;27;20429;-70
2022/05/21 00:13:15;;;;;;;9.98;9.07;;;12.80;83.10;;;;;;5076073;28;20477;-67
2022/05/21 00:15:42;;;;;;;9.88;8.98;;;12.80;83.00;;;;;;5080873;28;20969;-68
2022/05/21 00:18:09;;;;;;;11.00;10.00;;;12.80;83.10;;;;;;5076230;28;20456;-68
2022/05/21 00:20:50;;;;;;;10.13;9.23;;;12.80;83.00;;;;;;5072778;28;21680;-68
2022/05/21 00:23:24;;;;;;;9.45;8.65;;;12.80;83.30;;;;;;5074578;28;20428;-68
2022/05/21 00:25:55;;;;;;;9.95;9.05;;;12.80;83.50;;;;;;5078663;28;20634;-70
2022/05/21 00:28:21;;;;;;;11.15;10.15;;;12.70;83.50;;;;;;5079699;28;20432;-70
2022/05/21 00:30:48;;;;;;;10.93;10.00;;;12.70;84.10;;;;;;5074586;28;20764;-69
2022/05/21 00:33:15;;;;;;;11.20;10.00;;;12.70;83.90;;;;;;5083225;28;20432;-70
2022/05/21 00:35:42;;;;;;;11.00;10.00;;;12.60;84.20;;;;;;5076597;28;20426;-68
2022/05/21 00:38:09;;;;;;;11.40;10.40;;;12.60;84.00;;;;;;5077241;28;21081;-68
2022/05/21 00:40:38;;;;;;;12.00;10.90;;;12.60;84.00;;;;;;5075645;28;21463;-69
2022/05/21 00:43:05;;;;;;;12.60;11.50;;;12.60;83.80;;;;;;5074489;28;20480;-69
2022/05/21 00:45:32;;;;;;;13.07;11.77;;;12.60;83.80;;;;;;5076760;28;20447;-69
2022/05/21 00:47:59;;;;;;;12.13;11.03;;;12.60;85.10;;;;;;5082519;27;20503;-70
2022/05/21 00:50:30;;;;;;;12.45;11.25;;;12.60;84.30;;;;;;5075413;28;20425;-71
2022/05/21 00:52:59;;;;;;;11.80;10.70;;;12.50;84.10;;;;;;5074728;28;20545;-69
2022/05/21 00:55:29;;;;;;;11.10;10.20;;;12.60;84.20;;;;;;5073584;28;20477;-68
2022/05/21 01:00:46;;;;;;;11.80;10.80;;;12.50;84.40;;;;;;5075100;28;20497;-69
2022/05/21 01:03:14;;;;;;;11.98;10.90;;;12.50;84.70;;;;;;5077425;28;20432;-68
2022/05/21 01:05:40;;;;;;;12.20;11.10;;;12.50;84.90;;;;;;5073701;28;20512;-70
2022/05/21 01:08:08;;;;;;;12.10;11.00;;;12.50;84.80;;;;;;5072730;28;20429;-68
2022/05/21 01:10:37;;;;;;;11.57;10.48;;;12.50;85.00;;;;;;5074057;28;21229;-70
2022/05/21 01:13:11;;;;;;;12.57;11.48;;;12.50;85.20;;;;;;5070601;28;20426;-68
2022/05/21 01:15:42;;;;;;;12.63;11.52;;;12.40;85.20;;;;;;5071273;28;21122;-69
2022/05/21 01:18:09;;;;;;;12.55;11.40;;;12.40;85.50;;;;;;5072670;28;20416;-69
2022/05/21 01:20:39;;;;;;;12.60;11.50;;;12.40;86.00;;;;;;5073202;28;20432;-70
2022/05/21 01:23:07;;;;;;;13.00;11.80;;;12.40;85.90;;;;;;5071469;28;21306;-69
2022/05/21 01:25:35;;;;;;;13.65;12.25;;;12.40;86.00;;;;;;5073340;28;20436;-69
2022/05/21 01:28:03;;;;;;;11.80;10.80;;;12.30;86.00;;;;;;5072077;28;20471;-70
2022/05/21 01:30:34;;;;;;;11.18;10.07;;;12.40;85.80;;;;;;5071710;28;20585;-69
2022/05/21 01:33:04;;;;;;;11.10;10.07;;;12.30;85.90;;;;;;5072646;28;20432;-70
2022/05/21 01:35:31;;;;;;;11.20;10.10;;;12.30;86.10;;;;;;5070461;27;20431;-69
2022/05/21 01:37:58;;;;;;;10.00;9.00;;;12.30;86.20;;;;;;5078900;28;20508;-69
2022/05/21 01:40:27;;;;;;;10.65;9.55;;;12.30;86.40;;;;;;5076776;28;20428;-69
2022/05/21 01:45:35;;;;;;;9.30;8.40;;;12.30;85.80;;;;;;5070521;28;20420;-70
2022/05/21 01:48:03;;;;;;;9.15;8.35;;;12.20;85.70;;;;;;5070078;28;20425;-69
2022/05/21 01:50:29;;;;;;;8.50;7.70;;;12.20;85.70;;;;;;5071664;28;22131;-70
2022/05/21 01:52:56;;;;;;;7.88;7.07;;;12.20;85.70;;;;;;5069198;28;21106;-70
2022/05/21 01:55:23;;;;;;;7.80;7.10;;;12.20;85.50;;;;;;5074127;28;20428;-70
2022/05/21 01:57:51;;;;;;;8.20;7.50;;;12.20;85.40;;;;;;5072430;28;20445;-69
2022/05/21 02:00:19;;;;;;;8.25;7.55;;;12.20;85.10;;;;;;5073345;28;20470;-69
2022/05/21 02:02:46;;;;;;;8.00;7.20;;;12.20;85.10;;;;;;5079239;28;20487;-69
2022/05/21 02:05:13;;;;;;;7.55;6.75;;;12.20;85.20;;;;;;5076122;28;20428;-68
2022/05/21 02:07:40;;;;;;;7.10;6.50;;;12.20;84.80;;;;;;5075002;28;20432;-68
2022/05/21 02:10:08;;;;;;;8.30;6.70;;;12.20;84.90;;;;;;5083698;28;20614;-69
2022/05/21 02:12:34;;;;;;;6.90;6.25;;;12.20;84.90;;;;;;5097237;28;20427;-69
2022/05/21 02:15:02;;;;;;;6.85;6.25;;;12.20;85.00;;;;;;5096863;28;20477;-70
2022/05/21 02:17:29;;;;;;;6.30;5.70;;;12.10;84.80;;;;;;5091062;28;20868;-70
2022/05/21 02:19:56;;;;;;;5.95;5.45;;;12.10;85.00;;;;;;5100607;28;20436;-69
2022/05/21 02:22:23;;;;;;;5.97;5.38;;;12.10;85.00;;;;;;5094493;28;20890;-70
2022/05/21 02:24:49;;;;;;;5.65;5.10;;;12.10;84.80;;;;;;5095392;28;20548;-70
2022/05/21 02:27:16;;;;;;;6.93;5.30;;;12.10;84.40;;;;;;5100644;28;20416;-70
2022/05/21 02:29:43;;;;;;;5.03;4.57;;;12.10;84.40;;;;;;5106019;28;20501;-70
2022/05/21 02:32:13;;;;;;;5.85;4.78;;;12.10;84.00;;;;;;5104458;28;20502;-69
2022/05/21 02:34:40;;;;;;;5.57;4.15;;;12.10;83.70;;;;;;5105186;28;20481;-70
2022/05/21 02:39:51;;;;;;;4.65;3.88;;;12.10;83.10;;;;;;5104056;28;20617;-70
2022/05/21 02:44:58;;;;;;;6.45;3.30;;;12.10;82.30;;;;;;5096951;28;20424;-70
2022/05/21 02:47:26;;;;;;;4.22;3.50;;;12.10;81.90;;;;;;5103801;28;20477;-70
2022/05/21 02:49:53;;;;;;;4.50;3.25;;;12.10;81.80;;;;;;5105950;28;20432;-70
2022/05/21 02:52:20;;;;;;;7.68;4.07;;;12.10;81.80;;;;;;5104924;28;20423;-71
2022/05/21 02:54:46;;;;;;;7.22;3.40;;;12.10;81.90;;;;;;5108927;28;20435;-70
2022/05/21 02:57:13;;;;;;;4.20;3.05;;;12.10;82.10;;;;;;5109364;28;20847;-70
2022/05/21 02:59:40;;;;;;;3.00;2.60;;;12.10;82.00;;;;;;5110111;28;20843;-70
2022/05/21 03:02:07;;;;;;;4.28;2.50;;;12.10;81.90;;;;;;5110208;28;20428;-70
2022/05/21 03:04:35;;;;;;;3.83;2.40;;;12.10;82.20;;;;;;5141340;22;20440;-69
2022/05/21 03:07:02;;;;;;;4.63;3.05;;;12.00;82.40;;;;;;5117212;27;20488;-67
2022/05/21 03:12:13;;;;;;;3.60;2.40;;;12.00;82.50;;;;;;5112405;27;20931;-69
2022/05/21 03:14:40;;;;;;;3.67;2.58;;;12.00;82.50;;;;;;5104677;28;20463;-69
2022/05/21 03:17:06;;;;;;;3.47;2.45;;;12.00;82.70;;;;;;5106621;28;20424;-69
2022/05/21 03:19:35;;;;;;;4.45;2.50;;;12.00;82.60;;;;;;5104288;28;20546;-68
2022/05/21 03:22:02;;;;;;;4.27;2.60;;;12.00;82.50;;;;;;5104321;28;20435;-69
2022/05/21 03:24:29;;;;;;;3.30;2.27;;;12.00;82.50;;;;;;5092914;28;20431;-68
2022/05/21 03:26:56;;;;;;;3.50;2.40;;;12.00;82.50;;;;;;5103323;28;20419;-69
2022/05/21 03:29:24;;;;;;;3.63;2.20;;;12.00;82.50;;;;;;5105989;28;21009;-68
2022/05/21 03:31:50;;;;;;;4.95;2.20;;;12.10;82.70;;;;;;5105875;28;20440;-68
2022/05/21 03:34:17;;;;;;;6.90;2.00;;;12.20;82.10;;;;;;5105113;28;20423;-69
2022/05/21 03:36:45;;;;;;;3.70;2.10;;;12.20;81.90;;;;;;5106822;28;20793;-69
2022/05/21 03:39:12;;;;;;;3.67;1.80;;;12.30;81.30;;;;;;5105980;28;20575;-69
2022/05/21 03:41:38;;;;;;;4.05;2.00;;;12.40;81.00;;;;;;5107081;28;20863;-69
2022/05/21 03:44:06;;;;;;;4.85;2.35;;;12.40;81.10;;;;;;5108281;28;20416;-69
2022/05/21 03:46:34;;;;;;;4.47;2.17;;;12.40;81.00;;;;;;5099631;28;20473;-68
2022/05/21 03:49:00;;;;;;;4.90;1.98;;;12.40;80.80;;;;;;5111713;28;20496;-68
2022/05/21 03:51:27;;;;;;;4.47;2.13;;;12.40;80.80;;;;;;5109515;27;20512;-70
2022/05/21 03:53:55;;;;;;;4.57;2.00;;;12.40;81.10;;;;;;5097602;28;20839;-69
2022/05/21 03:56:22;;;;;;;3.97;2.20;;;12.50;80.80;;;;;;5101842;27;20423;-69
2022/05/21 03:58:48;;;;;;;4.40;2.10;;;12.50;80.40;;;;;;5107576;28;20449;-69
2022/05/21 04:01:15;;;;;;;5.97;2.17;;;12.50;80.30;;;;;;5101530;28;20424;-69
2022/05/21 04:03:43;;;;;;;5.03;2.25;;;12.60;80.20;;;;;;5105592;28;20497;-69
2022/05/21 04:06:11;;;;;;;4.22;1.90;;;12.60;80.00;;;;;;5106876;28;20408;-69
2022/05/21 04:08:37;;;;;;;3.17;1.90;;;12.60;79.80;;;;;;5097877;28;20534;-70
2022/05/21 04:11:05;;;;;;;5.10;2.20;;;12.60;80.90;;;;;;5105844;28;20443;-69
2022/05/21 04:13:32;;;;;;;3.50;1.80;;;12.60;79.30;;;;;;5105440;28;21061;-69
2022/05/21 04:15:58;;;;;;;4.75;2.60;;;12.70;78.80;;;;;;5096508;28;20461;-68
2022/05/21 04:18:25;;;;;;;4.07;1.70;;;12.60;79.20;;;;;;5095875;28;20509;-69
2022/05/21 04:20:52;;;;;;;3.42;1.80;;;12.70;79.10;;;;;;5105784;28;20461;-69
2022/05/21 04:23:19;;;;;;;4.43;1.70;;;12.70;78.40;;;;;;5090691;28;20433;-68
2022/05/21 04:25:46;;;;;;;3.67;2.00;;;12.80;78.60;;;;;;5106812;28;20423;-69
2022/05/21 04:28:14;;;;;;;6.97;2.28;;;12.80;77.80;;;;;;5100313;28;20436;-69
2022/05/21 04:30:41;;;;;;;4.37;1.80;;;12.70;78.20;;;;;;5103800;28;20420;-70
2022/05/21 04:33:08;;;;;;;4.40;1.67;;;12.70;78.60;;;;;;5103198;28;20436;-69
2022/05/21 04:38:19;;;;;;;5.63;2.53;;;12.80;77.60;;;;;;5098438;28;20506;-68
2022/05/21 04:40:46;;;;;;;3.95;1.77;;;12.80;77.70;;;;;;5106355;28;20424;-69
2022/05/21 04:43:14;;;;;;;5.38;2.00;;;12.80;77.80;;;;;;5102370;28;20548;-69
2022/05/21 04:45:41;;;;;;;4.07;2.22;;;12.80;77.90;;;;;;5103420;28;20508;-69
2022/05/21 04:48:09;;;;;;;4.30;2.00;;;12.80;77.80;;;;;;5103002;28;20424;-69
2022/05/21 04:50:38;;;;;;;3.23;1.70;;;12.80;77.80;;;;;;5103247;28;20555;-70
2022/05/21 04:53:05;;;;;;;5.30;2.13;;;12.90;77.20;;;;;;5103412;28;20436;-68
2022/05/21 04:55:32;;;;;;;3.58;2.20;;;12.80;77.30;;;;;;5106075;28;20536;-69
2022/05/21 04:57:59;;;;;;;5.38;2.40;;;12.80;77.40;;;;;;5100624;28;20509;-69
2022/05/21 05:00:27;;;;;;;5.30;2.25;;;12.80;77.50;;;;;;5104418;28;20980;-68
2022/05/21 05:02:54;;;;;;;4.15;2.38;;;12.90;77.70;;;;;;5103650;28;20526;-69
2022/05/21 05:05:20;;;;;;;4.95;2.10;;;12.90;77.00;;;;;;5096837;28;20507;-69
2022/05/21 05:07:47;;;;;;;4.32;2.40;;;12.90;77.80;;;;;;5098538;28;20416;-69
2022/05/21 05:10:14;;;;;;;4.20;1.90;;;12.80;77.40;;;;;;5100628;28;20486;-69
2022/05/21 05:12:40;;;;;;;4.30;1.90;;;12.80;77.70;;;;;;5101112;28;20431;-69
2022/05/21 05:15:08;;;;;;;5.13;2.10;;;12.80;77.40;;;;;;5105513;28;20908;-69
2022/05/21 05:17:36;;;;;;;4.65;2.15;;;12.80;77.50;;;;;;5102491;28;20450;-67
2022/05/21 05:20:04;;;;;;;3.97;2.10;;;12.90;77.50;;;;;;5103897;28;20460;-69
2022/05/21 05:22:31;;;;;;;3.47;2.08;;;13.00;77.30;;;;;;5103847;28;20436;-69
2022/05/21 05:24:58;;;;;;;4.57;1.98;;;13.00;77.50;;;;;;5104680;28;21158;-69
2022/05/21 05:27:25;;;;;;;4.65;2.22;;;13.00;77.40;;;;;;5104558;28;20427;-69
2022/05/21 05:29:51;;;;;;;5.75;2.40;;;13.00;77.20;;;;;;5100581;28;20429;-69
2022/05/21 05:32:18;;;;;;;3.70;2.20;;;13.00;77.70;;;;;;5102056;27;20436;-69
2022/05/21 05:34:46;;;;;;;6.93;2.45;;;13.00;77.80;;;;;;5105125;28;20408;-69
2022/05/21 05:37:13;;;;;;;4.22;2.10;;;13.10;77.60;;;;;;5098459;28;20444;-68
2022/05/21 05:39:40;;;;;;;4.25;2.28;;;13.00;77.60;;;;;;5102488;28;20759;-68
2022/05/21 05:42:07;;;;;;;5.10;2.23;;;13.10;77.60;;;;;;5103653;28;20433;-69
2022/05/21 05:44:33;;;;;;;4.47;2.40;;;13.10;77.60;;;;;;5102828;28;20432;-68
2022/05/21 05:47:00;;;;;;;3.78;2.20;;;13.20;77.00;;;;;;5102408;28;20955;-68
2022/05/21 05:49:27;;;;;;;4.45;2.40;;;13.10;77.00;;;;;;5101356;28;20440;-69
2022/05/21 05:51:55;;;;;;;5.57;2.50;;;13.10;77.30;;;;;;5101428;28;21956;-69
2022/05/21 05:54:21;;;;;;;6.63;2.63;;;13.10;77.10;;;;;;5103283;28;20941;-68
2022/05/21 05:56:48;;;;;;;3.15;2.20;;;13.20;77.00;;;;;;5102496;28;20496;-69
2022/05/21 06:04:40;;;;;;;4.38;2.40;;;13.40;76.00;;;;;;5100152;28;20511;-69
2022/05/21 06:07:12;;;;;;;6.35;2.35;;;13.40;76.40;;;;;;5103390;28;20823;-69
2022/05/21 06:09:39;;;;;;;4.82;2.50;;;13.40;76.10;;;;;;5101064;28;20424;-69
2022/05/21 06:12:08;;;;;;;7.60;3.03;;;13.50;76.10;;;;;;5101015;28;20893;-69
2022/05/21 06:14:35;;;;;;;5.65;2.90;;;13.50;75.10;;;;;;5101185;28;20423;-69
2022/05/21 06:17:02;;;;;;;6.10;3.15;;;13.60;75.80;;;;;;5102055;28;20565;-69
2022/05/21 06:19:29;;;;;;;4.22;2.67;;;13.60;74.70;;;;;;5102620;28;20439;-68
2022/05/21 06:21:57;;;;;;;3.05;2.40;;;13.70;74.30;;;;;;5102602;28;20497;-69
2022/05/21 06:24:25;;;;;;;5.53;2.60;;;13.80;74.80;;;;;;5103423;28;20515;-69
2022/05/21 06:26:52;;;;;;;7.90;2.83;;;13.80;74.90;;;;;;5101434;28;20447;-69
2022/05/21 06:29:19;;;;;;;5.82;2.70;;;14.00;73.80;;;;;;5098758;28;20432;-68
2022/05/21 06:31:45;;;;;;;7.47;3.20;;;14.10;73.50;;;;;;5102901;28;20469;-68
2022/05/21 06:34:12;;;;;;;5.82;3.13;;;14.00;73.20;;;;;;5101431;28;20432;-69
2022/05/21 06:36:40;;;;;;;6.32;3.25;;;14.00;74.20;;;;;;5099368;28;20431;-69
2022/05/21 06:39:06;;;;;;;4.53;2.90;;;14.20;72.70;;;;;;5092506;28;20486;-69
2022/05/21 06:41:34;;;;;;;7.45;3.40;;;14.20;73.10;;;;;;5100697;28;20454;-68
2022/05/21 06:44:01;;;;;;;5.57;3.50;;;14.30;74.90;;;;;;5100688;28;20436;-67
2022/05/21 06:46:28;;;;;;;7.95;3.40;;;14.40;71.80;;;;;;5100912;28;20656;-68
2022/05/21 06:48:54;;;;;;;5.35;3.20;;;14.40;72.50;;;;;;5101031;28;20416;-68
2022/05/21 06:51:21;;;;;;;6.60;2.90;;;14.50;71.60;;;;;;5102153;28;20447;-69
2022/05/21 06:53:49;;;;;;;5.97;3.20;;;14.50;71.80;;;;;;5092571;28;20508;-67
2022/05/21 06:56:18;;;;;;;5.97;2.90;;;14.40;73.00;;;;;;5097586;28;20575;-72
2022/05/21 06:58:46;;;;;;;6.32;3.60;;;14.50;72.00;;;;;;5100748;28;20477;-73
2022/05/21 07:01:13;;;;;;;7.07;3.37;;;14.30;72.60;;;;;;5101324;28;20451;-73
2022/05/21 07:03:40;;;;;;;7.13;3.70;;;14.40;72.00;;;;;;5097182;28;20428;-72
2022/05/21 07:08:52;;;;;;;10.00;3.65;;;14.20;72.30;;;;;;5092334;28;20487;-73
2022/05/21 07:11:18;;;;;;;7.60;3.70;;;14.20;71.80;;;;;;5100715;28;20446;-73
2022/05/21 07:13:46;;;;;;;6.97;3.85;;;14.10;72.70;;;;;;5098091;28;20905;-72
2022/05/21 07:16:13;;;;;;;6.10;3.50;;;14.20;73.90;;;;;;5098150;28;20438;-73
2022/05/21 07:18:40;;;;;;;5.00;3.50;;;14.20;72.40;;;;;;5097167;28;20458;-73
2022/05/21 07:21:10;;;;;;;7.13;3.50;;;14.30;72.50;;;;;;5097397;28;20781;-72
2022/05/21 07:23:38;;;;;;;7.53;3.20;;;14.30;72.10;;;;;;5092490;28;20933;-72
2022/05/21 07:26:04;;;;;;;7.20;3.40;;;14.40;72.20;;;;;;5096811;28;20474;-73
2022/05/21 07:28:31;;;;;;;7.00;3.78;;;14.70;70.80;;;;;;5098155;28;21413;-73
2022/05/21 07:30:59;;;;;;;8.57;4.15;;;15.10;70.10;;;;;;5100104;28;20424;-73
2022/05/21 07:33:26;;;;;;;5.50;3.13;;;15.40;68.30;;;;;;5096847;28;20451;-73
2022/05/21 07:35:53;;;;;;;5.10;2.65;;;15.60;68.50;;;;;;5097837;28;20447;-72
2022/05/21 07:38:19;;;;;;;7.30;3.25;;;15.70;67.00;;;;;;5098614;28;20420;-73
2022/05/21 07:40:48;;;;;;;6.78;3.55;;;15.80;65.90;;;;;;5099883;27;20428;-73
2022/05/21 07:43:18;;;;;;;6.65;3.50;;;15.60;66.10;;;;;;5103217;28;21164;-72
2022/05/21 07:45:46;;;;;;;7.82;3.50;;;15.30;66.50;;;;;;5103517;28;20493;-72
2022/05/21 07:48:16;;;;;;;6.82;3.85;;;15.30;66.70;;;;;;5104250;28;20884;-72
2022/05/21 07:50:44;;;;;;;6.95;3.10;;;15.30;66.60;;;;;;5102633;28;20424;-72
2022/05/21 07:53:12;;;;;;;6.27;3.10;;;15.40;67.00;;;;;;5105748;28;20554;-73
2022/05/21 07:55:39;;;;;;;6.32;3.10;;;15.60;65.70;;;;;;5101545;28;21031;-72
2022/05/21 07:58:06;;;;;;;6.68;4.45;;;15.90;65.30;;;;;;5093729;28;20910;-73
2022/05/21 08:00:33;;;;;;;4.45;3.10;;;16.10;64.10;;;;;;5102200;28;20439;-74
2022/05/21 08:02:59;;;;;;;6.07;2.97;;;16.10;62.20;;;;;;5099090;28;20428;-77
2022/05/21 08:05:27;;;;;;;10.60;3.97;;;16.00;63.70;;;;;;5105374;28;20488;-76
2022/05/21 08:07:54;;;;;;;7.40;3.30;;;16.10;64.60;;;;;;5103927;27;20545;-72
2022/05/21 08:10:22;;;;;;;5.13;3.03;;;16.40;64.20;;;;;;5102733;27;20439;-71
2022/05/21 08:12:49;;;;;;;5.13;3.10;;;16.50;61.90;;;;;;5101302;28;20451;-72
2022/05/21 08:15:16;;;;;;;6.33;3.40;;;16.70;61.30;;;;;;5101808;28;20440;-70
2022/05/21 08:17:43;;;;;;;5.30;3.15;;;16.50;61.90;;;;;;5103627;28;20424;-71
2022/05/21 08:20:11;;;;;;;6.90;3.60;;;16.50;62.70;;;;;;5101427;27;20832;-71
2022/05/21 08:28:10;;;;;;;5.88;3.63;;;16.10;63.00;;;;;;5101713;28;20932;-71
2022/05/21 08:30:36;;;;;;;4.95;2.88;;;16.20;62.30;;;;;;5100879;28;20443;-71
2022/05/21 08:33:05;;;;;;;6.78;3.05;;;16.40;61.30;;;;;;5104393;28;20923;-71
2022/05/21 08:35:32;;;;;;;6.18;2.90;;;16.90;60.00;;;;;;5100235;27;20510;-72
2022/05/21 08:38:00;;;;;;;5.80;2.72;;;17.10;57.40;;;;;;5092294;28;20515;-71
2022/05/21 08:40:40;;;;;;;7.32;2.92;;;17.00;57.30;;;;;;5102538;28;20424;-72
2022/05/21 08:43:17;;;;;;;5.82;3.65;;;17.00;57.10;;;;;;5104029;28;20436;-72
2022/05/21 08:45:56;;;;;;;6.78;3.10;;;17.10;57.30;;;;;;5103537;27;20446;-73
2022/05/21 08:48:24;;;;;;;4.82;2.90;;;17.10;56.30;;;;;;5103287;27;20500;-72
2022/05/21 08:50:54;;;;;;;6.60;3.05;;;17.10;57.20;;;;;;5097219;27;20451;-73
2022/05/21 08:53:26;;;;;;;4.85;2.90;;;17.30;56.50;;;;;;5103139;28;20424;-73
2022/05/21 08:55:55;;;;;;;5.40;2.90;;;17.80;56.80;;;;;;5103692;28;20434;-72
2022/05/21 08:58:30;;;;;;;6.25;2.90;;;17.70;55.00;;;;;;5101913;27;20543;-73
2022/05/21 09:00:57;;;;;;;6.00;3.30;;;17.20;56.60;;;;;;5101663;28;20890;-75
2022/05/21 09:03:25;;;;;;;5.45;2.92;;;16.80;57.50;;;;;;5102109;28;20418;-74
2022/05/21 09:06:04;;;;;;;4.32;2.75;;;16.90;58.30;;;;;;5103342;28;21139;-73
2022/05/21 09:08:41;;;;;;;4.80;2.40;;;17.10;56.90;;;;;;5105623;28;20412;-73
2022/05/21 09:11:14;;;;;;;4.05;2.60;;;17.00;57.50;;;;;;5104518;27;20437;-74
2022/05/21 09:13:44;;;;;;;5.57;2.47;;;17.00;56.40;;;;;;5101872;28;20500;-71
2022/05/21 09:18:57;;;;;;;5.20;2.40;;;17.30;56.50;;;;;;5107804;27;20565;-75
2022/05/21 09:21:26;;;;;;;4.55;2.70;;;17.30;56.60;;;;;;5108045;28;20736;-72
2022/05/21 09:23:55;;;;;;;5.38;2.60;;;17.70;56.20;;;;;;5106861;27;20469;-76
2022/05/21 09:26:25;;;;;;;5.43;2.60;;;18.00;55.60;;;;;;5102829;28;20435;-72
2022/05/21 09:28:52;;;;;;;4.70;2.70;;;18.30;55.00;;;;;;5103419;28;20851;-74
2022/05/21 09:31:29;;;;;;;3.85;2.05;;;18.60;53.20;;;;;;5101037;28;20466;-74
2022/05/21 09:33:56;;;;;;;6.43;2.05;;;19.00;51.50;;;;;;5099013;28;20519;-71
2022/05/21 09:36:33;;;;;;;4.75;1.90;;;19.40;50.50;;;;;;5105266;27;20415;-71
2022/05/21 09:39:01;;;;;;;3.50;2.13;;;19.80;50.20;;;;;;5099589;28;20960;-71
2022/05/21 09:41:32;;;;;;;4.10;1.90;;;20.30;49.80;;;;;;5106730;28;20878;-72
2022/05/21 09:47:11;;;;;;;2.87;1.80;;;19.90;47.30;;;;;;5057292;28;20541;-73
2022/05/21 09:49:39;;;;;;;2.83;1.80;;;19.90;45.90;;;;;;5098329;28;20416;-70
2022/05/21 09:52:07;;;;;;;5.23;2.10;;;19.90;44.60;;;;;;5099548;28;20428;-70
2022/05/21 09:54:38;;;;;;;4.10;2.10;;;19.70;45.10;;;;;;5120365;22;20433;-74
2022/05/21 09:57:05;;;;;;;4.10;1.88;;;19.80;47.00;;;;;;5090586;28;20424;-70
2022/05/21 09:59:34;;;;;;;3.45;1.90;;;20.30;46.60;;;;;;5088076;28;20433;-73
2022/05/21 10:02:13;;;;;;;5.28;1.95;;;20.90;45.70;;;;;;5081652;28;20429;-73
2022/05/21 10:04:44;;;;;;;2.95;1.60;;;21.10;42.60;;;;;;5086515;28;20429;-76
2022/05/21 10:10:58;;;;;;;4.28;2.10;;;20.60;43.00;;;;;;5085714;28;20433;-74
2022/05/21 10:13:00;;;;;;;3.90;2.10;;;19.80;45.30;;;;;;5073564;28;20548;-74
2022/05/21 10:15:30;;;;;;;3.90;2.13;;;19.90;46.60;;;;;;5087759;28;20414;-72
2022/05/21 10:18:04;;;;;;;3.92;1.90;;;20.30;45.30;;;;;;5084670;28;20976;-74
2022/05/21 10:20:37;;;;;;;3.70;2.00;;;20.50;42.70;;;;;;5085216;28;20507;-74
2022/05/21 10:23:09;;;;;;;3.35;1.70;;;20.30;42.20;;;;;;5090136;28;20496;-74
2022/05/21 10:25:48;;;;;;;7.23;2.40;;;20.30;43.40;;;;;;5089601;28;20589;-73
2022/05/21 10:28:38;;;;;;;3.65;2.00;;;20.20;42.80;;;;;;5077987;28;20433;-73
2022/05/21 10:31:15;;;;;;;3.92;1.95;;;20.20;43.00;;;;;;5088432;28;20408;-71
2022/05/21 10:33:53;;;;;;;3.55;1.90;;;20.40;45.00;;;;;;5083561;28;21012;-74
2022/05/21 10:36:32;;;;;;;3.00;1.90;;;20.90;44.30;;;;;;5081659;28;20950;-74
2022/05/21 10:39:27;;;;;;;4.30;2.17;;;21.20;41.30;;;;;;5074892;28;20433;-72
2022/05/21 10:42:27;;;;;;;3.38;2.00;;;21.30;42.60;;;;;;5084180;28;20440;-73
2022/05/21 10:45:08;;;;;;;4.07;2.20;;;21.00;41.30;;;;;;5080849;28;20516;-74
2022/05/21 10:47:57;;;;;;;3.07;1.70;;;21.00;41.70;;;;;;5080587;28;20436;-74
2022/05/21 10:50:30;;;;;;;4.00;2.05;;;21.50;43.70;;;;;;5081103;28;20430;-75
2022/05/21 10:53:38;;;;;;;4.18;2.70;;;21.90;42.30;;;;;;5084503;28;20550;-75
2022/05/21 10:56:25;;;;;;;9.00;7.32;;;22.20;41.90;;;;;;5024839;28;20434;-74
2022/05/21 10:59:07;;;;;;;4.90;3.77;;;22.30;39.60;;;;;;5079828;28;20433;-74
2022/05/21 11:01:40;;;;;;;3.13;2.13;;;22.20;38.90;;;;;;5081460;28;20939;-73
2022/05/21 11:04:34;;;;;;;4.70;3.60;;;21.60;39.30;;;;;;5083673;28;20783;-73
2022/05/21 11:07:32;;;;;;;7.72;5.38;;;21.20;41.30;;;;;;5043128;28;20464;-72
2022/05/21 11:10:05;;;;;;;4.30;2.45;;;21.10;44.50;;;;;;5067033;28;20418;-74
2022/05/21 11:12:38;;;;;;;6.03;2.53;;;20.80;41.50;;;;;;5081896;28;20494;-73
2022/05/21 11:15:10;;;;;;;3.00;2.40;;;20.20;43.00;;;;;;5086354;28;20451;-73
2022/05/21 11:17:42;;;;;;;4.50;2.40;;;20.10;45.60;;;;;;5089242;28;20429;-73
2022/05/21 11:20:17;;;;;;;5.82;2.90;;;19.90;45.70;;;;;;5089567;28;20429;-74
2022/05/21 11:22:50;;;;;;;5.35;2.58;;;19.80;46.20;;;;;;5087562;28;20483;-70
2022/05/21 11:25:21;;;;;;;5.15;3.20;;;19.70;46.20;;;;;;5088707;28;20432;-74
2022/05/21 11:27:54;;;;;;;4.40;2.78;;;20.10;46.70;;;;;;5090549;28;20439;-74
2022/05/21 11:30:22;;;;;;;3.53;2.70;;;20.60;46.00;;;;;;5080233;28;20493;-73
2022/05/21 11:38:30;;;;;;;3.90;2.10;;;22.20;40.30;;;;;;5092406;28;20405;-73
2022/05/21 11:46:53;;;;;;;4.35;2.20;;;21.20;40.00;;;;;;5091621;28;20760;-73
2022/05/21 11:49:35;;;;;;;3.70;2.28;;;21.10;41.80;;;;;;5077746;28;20406;-73
2022/05/21 11:52:37;;;;;;;4.63;2.10;;;21.10;42.20;;;;;;5087624;28;20448;-73
2022/05/21 11:55:15;;;;;;;3.77;2.03;;;21.20;40.60;;;;;;5084766;28;20537;-73
2022/05/21 11:57:45;;;;;;;3.50;2.20;;;20.90;41.40;;;;;;5087812;28;21000;-73
2022/05/21 12:00:45;;;;;;;5.63;2.30;;;20.70;41.90;;;;;;5082925;28;20441;-73
2022/05/21 12:03:20;;;;;;;4.03;2.10;;;20.40;42.40;;;;;;5089062;28;20442;-74
2022/05/21 12:06:06;;;;;;;4.75;2.20;;;20.30;43.40;;;;;;5089808;28;20422;-73
2022/05/21 12:08:43;;;;;;;4.72;2.60;;;20.20;44.90;;;;;;5086369;28;20848;-74
2022/05/21 12:11:13;;;;;;;3.92;2.15;;;20.50;43.30;;;;;;5088023;28;20441;-72
2022/05/21 12:14:00;;;;;;;3.70;2.60;;;20.50;43.10;;;;;;5087177;28;20429;-72
2022/05/21 12:16:46;;;;;;;4.80;2.33;;;20.70;44.20;;;;;;5096115;28;20414;-70
2022/05/21 12:20:05;;;;;;;6.85;2.70;;;21.00;42.20;;;;;;5094370;28;20434;-69
2022/05/21 12:22:51;;;;;;;4.90;2.30;;;21.40;41.50;;;;;;5090925;28;20504;-69
2022/05/21 12:25:58;;;;;;;3.75;2.05;;;21.40;39.60;;;;;;5086659;28;20509;-70
2022/05/21 12:28:47;;;;;;;2.92;1.83;;;21.50;41.90;;;;;;5093084;28;20460;-70
2022/05/21 12:31:21;;;;;;;4.70;2.10;;;22.10;38.30;;;;;;5089113;28;20441;-72
2022/05/21 12:33:55;;;;;;;4.03;2.00;;;21.80;40.20;;;;;;5083374;28;20855;-71
2022/05/21 12:36:41;;;;;;;3.35;1.90;;;22.10;41.60;;;;;;5082045;28;20907;-72
2022/05/21 12:39:13;;;;;;;3.60;2.00;;;22.40;39.50;;;;;;5082911;28;20425;-71
2022/05/21 12:41:43;;;;;;;3.58;2.20;;;22.10;39.30;;;;;;5080209;28;20461;-70
2022/05/21 12:44:11;;;;;;;3.15;1.95;;;21.60;40.30;;;;;;5081529;28;20429;-70
2022/05/21 12:46:41;;;;;;;4.10;1.92;;;21.30;41.00;;;;;;5088791;28;20429;-70
2022/05/21 12:49:11;;;;;;;3.75;2.13;;;21.10;40.30;;;;;;5087265;28;20434;-72
2022/05/21 12:51:42;;;;;;;4.55;2.60;;;20.90;42.00;;;;;;5087809;28;20429;-71
2022/05/21 12:54:21;;;;;;;3.70;1.88;;;20.80;41.40;;;;;;5086509;28;20440;-71
2022/05/21 12:56:48;;;;;;;4.10;1.90;;;20.90;42.40;;;;;;5084445;28;20498;-71
2022/05/21 12:59:18;;;;;;;2.97;1.88;;;21.10;41.60;;;;;;5084132;28;20441;-72
2022/05/21 13:01:58;;;;;;;3.20;1.80;;;21.20;40.60;;;;;;5085705;28;20429;-72
2022/05/21 13:04:28;;;;;;;4.40;2.20;;;20.80;40.80;;;;;;5087038;28;20459;-72
2022/05/21 13:07:02;;;;;;;3.63;2.10;;;20.90;42.70;;;;;;5095092;28;20426;-68
2022/05/21 13:09:30;;;;;;;3.30;2.00;;;21.60;40.70;;;;;;5090016;28;20444;-69
2022/05/21 13:11:57;;;;;;;3.53;2.00;;;22.00;41.20;;;;;;5090539;28;20470;-68
2022/05/21 13:14:32;;;;;;;3.47;2.00;;;22.20;40.10;;;;;;5093224;28;20434;-74
2022/05/21 13:16:59;;;;;;;3.45;1.90;;;22.20;39.10;;;;;;5091220;28;20509;-69
2022/05/21 13:19:58;;;;;;;3.55;1.83;;;22.10;39.40;;;;;;5091225;28;20430;-72
2022/05/21 13:22:37;;;;;;;3.20;1.60;;;22.20;39.10;;;;;;5085696;28;20430;-67
2022/05/21 13:25:07;;;;;;;3.58;1.77;;;22.50;37.70;;;;;;5089019;28;20417;-71
2022/05/21 13:27:46;;;;;;;4.50;1.85;;;22.80;36.20;;;;;;5087996;28;20425;-72
2022/05/21 13:30:16;;;;;;;2.78;1.70;;;23.00;35.90;;;;;;5083782;28;20425;-67
2022/05/21 13:32:45;;;;;;;3.17;1.53;;;23.00;38.20;;;;;;5084779;28;20478;-71
2022/05/21 13:35:23;;;;;;;5.78;2.05;;;22.90;35.50;;;;;;5085184;28;20956;-66
2022/05/21 13:37:52;;;;;;;4.70;2.03;;;22.70;39.20;;;;;;5087577;28;20410;-66
2022/05/21 13:40:22;;;;;;;2.92;1.85;;;22.70;38.20;;;;;;5101581;28;20426;-65
2022/05/21 13:42:51;;;;;;;3.03;1.90;;;22.90;37.50;;;;;;5106307;28;21935;-66
2022/05/21 13:45:28;;;;;;;3.20;1.80;;;23.00;37.40;;;;;;5105671;28;20513;-66
2022/05/21 13:47:59;;;;;;;3.45;1.63;;;23.00;35.60;;;;;;5111304;28;20406;-70
2022/05/21 13:50:28;;;;;;;3.70;1.95;;;23.00;36.30;;;;;;5105019;28;20479;-72
2022/05/21 13:52:57;;;;;;;3.10;1.80;;;22.80;36.70;;;;;;5106927;28;20425;-71